DEGMH EDHL-EDDH
Flight info
| Callsign | DEGMH |
|---|---|
| Flight time | 0h 18m |
| Altitude | 8000 |
| Route | LUGEG2K LUGEG DCT PISAS |
| Aircraft | B58T/L-SDFGRY/C |
Departure
| Time | 2026-04-22 13:08 |
|---|---|
| Airport | Lübeck Blankensee Airport (EDHL) |
Arrival
| Time | 2026-04-22 13:27 |
|---|---|
| Airport | Hamburg Helmut Schmidt Airport (EDDH) |
| Time | Latitude | Longitude | Altitude | Speed | Heading |
|---|---|---|---|---|---|
| 2026-04-22 12:58 | 53.80578 | 10.70322 | 53 ft | 0 kts | 230° |
| 2026-04-22 13:05 | 53.80574 | 10.70314 | 53 ft | 3 kts | 220° |
| 2026-04-22 13:05 | 53.80543 | 10.70326 | 53 ft | 11 kts | 135° |
| 2026-04-22 13:06 | 53.80460 | 10.70429 | 52 ft | 14 kts | 136° |
| 2026-04-22 13:06 | 53.80483 | 10.70634 | 52 ft | 22 kts | 70° |
| 2026-04-22 13:06 | 53.80529 | 10.70869 | 53 ft | 20 kts | 72° |
| 2026-04-22 13:06 | 53.80568 | 10.71077 | 54 ft | 17 kts | 72° |
| 2026-04-22 13:07 | 53.80605 | 10.71269 | 57 ft | 18 kts | 73° |
| 2026-04-22 13:07 | 53.80645 | 10.71480 | 56 ft | 20 kts | 71° |
| 2026-04-22 13:07 | 53.80651 | 10.71658 | 55 ft | 16 kts | 108° |
| 2026-04-22 13:07 | 53.80609 | 10.71836 | 56 ft | 17 kts | 111° |
| 2026-04-22 13:08 | 53.80557 | 10.71979 | 53 ft | 14 kts | 179° |
| 2026-04-22 13:08 | 53.80492 | 10.71695 | 60 ft | 65 kts | 253° |
| 2026-04-22 13:08 | 53.80285 | 10.70643 | 231 ft | 109 kts | 254° |
| 2026-04-22 13:08 | 53.80030 | 10.69417 | 730 ft | 113 kts | 255° |
| 2026-04-22 13:09 | 53.79744 | 10.68085 | 1150 ft | 131 kts | 253° |
| 2026-04-22 13:09 | 53.79417 | 10.66614 | 1560 ft | 139 kts | 252° |
| 2026-04-22 13:09 | 53.79060 | 10.65019 | 1863 ft | 147 kts | 252° |
| 2026-04-22 13:09 | 53.78717 | 10.63392 | 2275 ft | 147 kts | 257° |
| 2026-04-22 13:10 | 53.78533 | 10.61684 | 2655 ft | 147 kts | 277° |
| 2026-04-22 13:10 | 53.78942 | 10.60188 | 3039 ft | 140 kts | 313° |
| 2026-04-22 13:10 | 53.79814 | 10.59409 | 3441 ft | 148 kts | 350° |
| 2026-04-22 13:10 | 53.80829 | 10.59687 | 3805 ft | 150 kts | 15° |
| 2026-04-22 13:11 | 53.81810 | 10.60255 | 4196 ft | 148 kts | 14° |
| 2026-04-22 13:11 | 53.82795 | 10.60786 | 4594 ft | 150 kts | 14° |
| 2026-04-22 13:11 | 53.83791 | 10.61321 | 4984 ft | 149 kts | 14° |
| 2026-04-22 13:11 | 53.84789 | 10.61852 | 5369 ft | 151 kts | 14° |
| 2026-04-22 13:12 | 53.85794 | 10.62381 | 5750 ft | 152 kts | 14° |
| 2026-04-22 13:12 | 53.86808 | 10.62914 | 6133 ft | 153 kts | 15° |
| 2026-04-22 13:12 | 53.87819 | 10.63453 | 6518 ft | 152 kts | 15° |
| 2026-04-22 13:12 | 53.88845 | 10.63659 | 6899 ft | 149 kts | 351° |
| 2026-04-22 13:13 | 53.89798 | 10.62995 | 7271 ft | 151 kts | 326° |
| 2026-04-22 13:13 | 53.90466 | 10.61597 | 7649 ft | 158 kts | 297° |
| 2026-04-22 13:13 | 53.90636 | 10.59745 | 8038 ft | 165 kts | 267° |
| 2026-04-22 13:13 | 53.90197 | 10.57915 | 8375 ft | 176 kts | 238° |
| 2026-04-22 13:14 | 53.89423 | 10.56148 | 8392 ft | 195 kts | 236° |
| 2026-04-22 13:14 | 53.88581 | 10.54250 | 8396 ft | 206 kts | 236° |
| 2026-04-22 13:14 | 53.87699 | 10.52286 | 8392 ft | 212 kts | 232° |
| 2026-04-22 13:14 | 53.86624 | 10.50585 | 8391 ft | 217 kts | 218° |
| 2026-04-22 13:15 | 53.85481 | 10.48865 | 8387 ft | 218 kts | 231° |
| 2026-04-22 13:15 | 53.84503 | 10.46905 | 8390 ft | 218 kts | 232° |
| 2026-04-22 13:15 | 53.83536 | 10.44926 | 8394 ft | 219 kts | 233° |
| 2026-04-22 13:15 | 53.82580 | 10.42920 | 8389 ft | 214 kts | 239° |
| 2026-04-22 13:16 | 53.82149 | 10.40695 | 8182 ft | 195 kts | 269° |
| 2026-04-22 13:16 | 53.82041 | 10.38415 | 7805 ft | 195 kts | 265° |
| 2026-04-22 13:16 | 53.81531 | 10.36293 | 7407 ft | 199 kts | 233° |
| 2026-04-22 13:16 | 53.80626 | 10.34566 | 6925 ft | 198 kts | 231° |
| 2026-04-22 13:17 | 53.79739 | 10.32795 | 6422 ft | 198 kts | 233° |
| 2026-04-22 13:17 | 53.78801 | 10.30908 | 5885 ft | 196 kts | 233° |
| 2026-04-22 13:17 | 53.77976 | 10.29256 | 5415 ft | 195 kts | 232° |
| 2026-04-22 13:17 | 53.77104 | 10.27513 | 4904 ft | 194 kts | 233° |
| 2026-04-22 13:18 | 53.76417 | 10.25618 | 4379 ft | 186 kts | 259° |
| 2026-04-22 13:18 | 53.76498 | 10.23535 | 3864 ft | 175 kts | 289° |
| 2026-04-22 13:18 | 53.76878 | 10.21613 | 3435 ft | 168 kts | 291° |
| 2026-04-22 13:18 | 53.77253 | 10.19795 | 3168 ft | 161 kts | 291° |
| 2026-04-22 13:19 | 53.77618 | 10.18059 | 2988 ft | 150 kts | 291° |
| 2026-04-22 13:19 | 53.77942 | 10.16469 | 2984 ft | 136 kts | 292° |
| 2026-04-22 13:19 | 53.78257 | 10.15008 | 2979 ft | 130 kts | 292° |
| 2026-04-22 13:19 | 53.78570 | 10.13549 | 3003 ft | 135 kts | 292° |
| 2026-04-22 13:20 | 53.78914 | 10.12055 | 2987 ft | 136 kts | 299° |
| 2026-04-22 13:20 | 53.79658 | 10.11142 | 2984 ft | 142 kts | 349° |
| 2026-04-22 13:20 | 53.80579 | 10.11659 | 2987 ft | 149 kts | 40° |
| 2026-04-22 13:20 | 53.80953 | 10.13302 | 2986 ft | 159 kts | 92° |
| 2026-04-22 13:21 | 53.80470 | 10.14988 | 2985 ft | 166 kts | 139° |
| 2026-04-22 13:21 | 53.79437 | 10.15795 | 2993 ft | 164 kts | 165° |
| 2026-04-22 13:21 | 53.78343 | 10.16362 | 3016 ft | 165 kts | 162° |
| 2026-04-22 13:21 | 53.77248 | 10.16975 | 3001 ft | 165 kts | 162° |
| 2026-04-22 13:22 | 53.76161 | 10.17618 | 2995 ft | 166 kts | 161° |
| 2026-04-22 13:22 | 53.75065 | 10.18287 | 3005 ft | 169 kts | 161° |
| 2026-04-22 13:22 | 53.73966 | 10.18993 | 3005 ft | 170 kts | 160° |
| 2026-04-22 13:22 | 53.72835 | 10.19541 | 2960 ft | 166 kts | 185° |
| 2026-04-22 13:23 | 53.71769 | 10.18966 | 2811 ft | 161 kts | 214° |
| 2026-04-22 13:23 | 53.71077 | 10.17616 | 2648 ft | 152 kts | 250° |
| 2026-04-22 13:23 | 53.70674 | 10.15971 | 2500 ft | 150 kts | 253° |
| 2026-04-22 13:23 | 53.70292 | 10.14328 | 2304 ft | 154 kts | 252° |
| 2026-04-22 13:24 | 53.69775 | 10.12692 | 2026 ft | 165 kts | 238° |
| 2026-04-22 13:24 | 53.69085 | 10.11139 | 1784 ft | 168 kts | 233° |
| 2026-04-22 13:24 | 53.68331 | 10.09627 | 1551 ft | 170 kts | 234° |
| 2026-04-22 13:24 | 53.67586 | 10.08084 | 1357 ft | 168 kts | 234° |
| 2026-04-22 13:25 | 53.66844 | 10.06566 | 1125 ft | 167 kts | 233° |
| 2026-04-22 13:25 | 53.66104 | 10.05085 | 896 ft | 161 kts | 234° |
| 2026-04-22 13:25 | 53.65467 | 10.03770 | 678 ft | 128 kts | 238° |
| 2026-04-22 13:25 | 53.64933 | 10.02654 | 494 ft | 126 kts | 230° |
| 2026-04-22 13:26 | 53.64372 | 10.01562 | 356 ft | 117 kts | 234° |
| 2026-04-22 13:26 | 53.63841 | 10.00467 | 214 ft | 121 kts | 234° |
| 2026-04-22 13:26 | 53.63345 | 9.99470 | 48 ft | 97 kts | 238° |
| 2026-04-22 13:26 | 53.62987 | 9.98721 | 43 ft | 64 kts | 230° |
| 2026-04-22 13:27 | 53.62759 | 9.98475 | 45 ft | 24 kts | 186° |
| 2026-04-22 13:27 | 53.62718 | 9.98477 | 45 ft | 0 kts | 175° |
| 2026-04-22 13:28 | 53.62717 | 9.98477 | 45 ft | 1 kts | 175° |
| 2026-04-22 13:28 | 53.62694 | 9.98531 | 45 ft | 12 kts | 85° |
| 2026-04-22 13:28 | 53.62750 | 9.98672 | 45 ft | 9 kts | 54° |
| 2026-04-22 13:29 | 53.62711 | 9.98766 | 45 ft | 8 kts | 135° |
| 2026-04-22 13:29 | 53.62710 | 9.98824 | 45 ft | 0 kts | 63° |